Time;durP1;ratioP1;P1;durP2;ratioP2;P2;SDS_P1;SDS_P2;PMS_P1;PMS_P2;Temp;Humidity;BMP_temperature;BMP_pressure;BME280_temperature;BME280_humidity;BME280_pressure;Samples;Min_cycle;Max_cycle;Signal;HPM_P1;HPM_P2
2021/01/05 08:57:36;;;;;;;10.97;5.30;;;4.00;99.90;;;;;;5021595;23;20232;-77
2021/01/05 09:00:05;;;;;;;14.37;6.37;;;4.20;99.90;;;;;;4932473;29;20228;-77
2021/01/05 09:02:32;;;;;;;15.43;6.03;;;4.30;99.90;;;;;;4935363;29;20212;-76
2021/01/05 09:04:58;;;;;;;12.13;5.50;;;4.20;99.90;;;;;;4926513;29;20612;-76
2021/01/05 09:07:24;;;;;;;11.40;5.77;;;4.00;99.90;;;;;;4915833;29;20220;-75
2021/01/05 09:09:51;;;;;;;11.60;5.63;;;4.00;99.90;;;;;;4916154;29;20216;-75
2021/01/05 09:12:18;;;;;;;14.87;5.13;;;3.90;99.90;;;;;;4916307;29;20235;-76
2021/01/05 09:14:44;;;;;;;10.10;5.13;;;4.10;99.90;;;;;;4915755;29;20245;-75
2021/01/05 09:17:11;;;;;;;9.07;4.77;;;4.10;99.90;;;;;;4916218;29;20206;-79
2021/01/05 09:19:39;;;;;;;10.20;5.27;;;3.90;99.90;;;;;;4917423;29;20626;-79
2021/01/05 09:22:06;;;;;;;12.90;5.27;;;3.80;99.90;;;;;;4915755;29;20205;-78
2021/01/05 09:24:32;;;;;;;10.77;4.60;;;3.90;99.90;;;;;;4915666;29;20237;-78
2021/01/05 09:26:58;;;;;;;13.10;5.80;;;3.80;99.90;;;;;;4915454;29;20216;-78
2021/01/05 09:29:26;;;;;;;8.17;4.73;;;4.00;99.90;;;;;;4915896;29;20217;-71
2021/01/05 09:31:54;;;;;;;12.43;5.87;;;4.00;99.90;;;;;;4919332;29;20205;-72
2021/01/05 09:34:24;;;;;;;11.63;5.80;;;4.00;99.90;;;;;;4919394;29;20265;-71
2021/01/05 09:36:51;;;;;;;10.90;5.30;;;4.10;99.90;;;;;;4919001;29;20676;-71
2021/01/05 09:39:21;;;;;;;10.40;5.43;;;4.30;99.90;;;;;;4915943;29;20217;-76
2021/01/05 09:41:50;;;;;;;10.57;5.13;;;4.00;99.90;;;;;;4918371;29;20218;-71
2021/01/05 09:44:17;;;;;;;11.07;5.53;;;3.90;99.90;;;;;;4917890;29;20234;-73
2021/01/05 09:46:50;;;;;;;10.80;5.70;;;4.00;99.90;;;;;;4917654;29;20300;-74
2021/01/05 09:49:16;;;;;;;15.07;6.33;;;4.00;99.90;;;;;;4917975;29;20213;-73
2021/01/05 09:51:44;;;;;;;15.33;6.30;;;4.00;99.90;;;;;;4917754;29;20224;-75
2021/01/05 09:54:11;;;;;;;13.10;5.73;;;4.00;99.90;;;;;;4917412;29;21646;-78
2021/01/05 09:56:37;;;;;;;13.33;6.27;;;4.00;99.90;;;;;;4917740;29;20217;-79
2021/01/05 09:59:03;;;;;;;14.33;6.97;;;3.80;99.90;;;;;;4916921;29;20221;-78
2021/01/05 10:01:31;;;;;;;13.07;6.03;;;3.60;99.90;;;;;;4918455;29;20272;-77
2021/01/05 10:03:58;;;;;;;16.03;6.80;;;3.50;99.90;;;;;;4917923;29;20221;-78
2021/01/05 10:06:28;;;;;;;17.10;7.00;;;3.60;99.90;;;;;;4917304;29;20550;-76
2021/01/05 10:08:55;;;;;;;18.10;6.90;;;3.60;99.90;;;;;;4916336;29;20217;-76
2021/01/05 10:11:22;;;;;;;17.83;6.83;;;3.70;99.90;;;;;;4917080;29;20269;-72
2021/01/05 10:13:48;;;;;;;17.90;7.50;;;3.80;99.90;;;;;;4927549;29;20218;-77
2021/01/05 10:16:14;;;;;;;17.50;7.23;;;3.70;99.90;;;;;;4921588;29;20230;-78
2021/01/05 10:18:41;;;;;;;17.30;7.03;;;3.50;99.90;;;;;;4926742;29;20224;-78
2021/01/05 10:21:07;;;;;;;14.40;6.10;;;3.60;99.90;;;;;;4926014;29;20205;-78
2021/01/05 10:23:33;;;;;;;13.67;6.90;;;3.70;99.90;;;;;;4927996;29;20214;-78
2021/01/05 10:26:00;;;;;;;16.60;6.80;;;3.70;99.90;;;;;;4925524;28;20705;-79
2021/01/05 10:28:26;;;;;;;20.03;6.90;;;3.70;99.90;;;;;;4917739;29;20205;-78
2021/01/05 10:30:53;;;;;;;15.27;6.40;;;3.90;99.90;;;;;;4917020;29;20213;-81
2021/01/05 10:33:19;;;;;;;15.37;6.00;;;4.00;99.90;;;;;;4917959;29;20216;-88
2021/01/05 10:35:45;;;;;;;15.80;6.30;;;3.70;99.90;;;;;;4917269;29;20245;-81
2021/01/05 10:38:11;;;;;;;13.90;6.67;;;3.60;99.90;;;;;;4916518;29;20220;-75
2021/01/05 10:40:38;;;;;;;18.47;7.20;;;3.60;99.90;;;;;;4916521;29;20215;-75
2021/01/05 10:43:05;;;;;;;18.93;7.47;;;3.50;99.90;;;;;;4916300;29;20221;-76
2021/01/05 10:45:31;;;;;;;14.27;7.13;;;3.60;99.90;;;;;;4916577;29;20704;-75
2021/01/05 10:47:58;;;;;;;15.67;6.50;;;3.60;99.90;;;;;;4916782;29;20245;-74
2021/01/05 10:50:25;;;;;;;21.47;7.43;;;3.60;99.90;;;;;;4916248;29;20671;-73
2021/01/05 10:52:52;;;;;;;17.43;6.90;;;3.70;99.90;;;;;;4916694;29;20214;-74
2021/01/05 10:55:21;;;;;;;15.20;7.27;;;3.70;99.90;;;;;;4916588;29;20249;-77
2021/01/05 10:57:49;;;;;;;18.20;7.23;;;3.70;99.90;;;;;;4915256;29;20240;-75
2021/01/05 11:00:18;;;;;;;17.50;7.33;;;3.70;99.90;;;;;;4915583;29;20221;-69
2021/01/05 11:02:45;;;;;;;15.67;6.97;;;3.70;99.90;;;;;;4916777;29;20600;-73
2021/01/05 11:05:13;;;;;;;16.53;6.57;;;3.80;99.90;;;;;;4914268;29;20652;-76
2021/01/05 11:07:40;;;;;;;17.73;6.80;;;3.80;99.90;;;;;;4917314;29;20291;-76
2021/01/05 11:10:09;;;;;;;15.57;7.30;;;3.80;99.90;;;;;;4917277;29;20542;-76
2021/01/05 11:12:35;;;;;;;14.33;5.80;;;3.80;99.90;;;;;;4917729;29;20210;-77
2021/01/05 11:15:01;;;;;;;18.10;6.93;;;3.70;99.90;;;;;;4917442;29;20242;-76
2021/01/05 11:17:28;;;;;;;17.53;7.37;;;3.80;99.90;;;;;;4917650;29;20573;-76
2021/01/05 11:19:54;;;;;;;16.23;7.17;;;3.70;99.90;;;;;;4917348;29;20281;-76
2021/01/05 11:22:21;;;;;;;20.53;7.37;;;3.60;99.90;;;;;;4917428;29;20213;-75
2021/01/05 11:24:47;;;;;;;19.83;7.70;;;3.50;99.90;;;;;;4917455;29;20236;-76
2021/01/05 11:27:14;;;;;;;24.97;8.20;;;3.50;99.90;;;;;;4916983;29;20581;-76
2021/01/05 11:29:42;;;;;;;15.30;7.33;;;3.60;99.90;;;;;;4917608;29;20214;-75
2021/01/05 11:32:11;;;;;;;18.53;7.63;;;3.70;99.90;;;;;;4917658;29;20209;-76
2021/01/05 11:34:39;;;;;;;19.53;8.40;;;3.60;99.90;;;;;;4916323;29;20651;-77
2021/01/05 11:37:07;;;;;;;15.63;7.27;;;3.50;99.90;;;;;;4917118;29;20253;-75
2021/01/05 11:39:34;;;;;;;17.33;7.47;;;3.50;99.90;;;;;;4916244;29;20214;-72
2021/01/05 11:42:02;;;;;;;19.40;8.63;;;3.40;99.90;;;;;;4917637;29;20577;-72
2021/01/05 11:44:29;;;;;;;16.07;7.33;;;3.40;99.90;;;;;;4917419;29;20226;-72
2021/01/05 11:46:56;;;;;;;18.50;6.80;;;3.50;99.90;;;;;;4917318;29;20217;-76
2021/01/05 11:49:22;;;;;;;19.60;7.83;;;3.60;99.90;;;;;;4917170;29;20625;-76
2021/01/05 11:51:52;;;;;;;19.80;7.40;;;3.60;99.90;;;;;;4917335;29;20213;-76
2021/01/05 11:54:18;;;;;;;19.73;6.97;;;3.60;99.90;;;;;;4917192;29;20244;-77
2021/01/05 11:56:45;;;;;;;20.73;8.57;;;3.60;99.90;;;;;;4917624;29;20609;-76
2021/01/05 11:59:12;;;;;;;16.77;7.60;;;3.70;99.90;;;;;;4917342;29;20206;-75
2021/01/05 12:01:39;;;;;;;20.03;8.07;;;3.80;99.90;;;;;;4917299;29;20221;-72
2021/01/05 12:04:07;;;;;;;16.73;7.30;;;3.70;99.90;;;;;;4917296;29;20216;-76
2021/01/05 12:06:33;;;;;;;15.33;6.77;;;3.70;99.90;;;;;;4917258;29;20214;-74
2021/01/05 12:09:01;;;;;;;15.53;7.23;;;3.70;99.90;;;;;;4916931;29;20218;-76
2021/01/05 12:11:30;;;;;;;17.47;7.77;;;3.90;99.90;;;;;;4917337;29;20622;-75
2021/01/05 12:13:57;;;;;;;15.40;6.50;;;4.00;99.90;;;;;;4916691;29;20232;-77
2021/01/05 12:16:27;;;;;;;16.13;6.67;;;4.10;99.90;;;;;;4917052;29;20217;-75
2021/01/05 12:18:55;;;;;;;15.07;6.13;;;4.00;99.90;;;;;;4916793;29;20209;-76
2021/01/05 12:21:24;;;;;;;13.47;6.37;;;4.10;99.90;;;;;;4916945;29;20550;-76
2021/01/05 12:23:50;;;;;;;17.33;6.93;;;4.10;99.90;;;;;;4917094;29;20221;-75
2021/01/05 12:26:25;;;;;;;15.90;6.27;;;4.10;99.90;;;;;;4917070;29;20221;-75
2021/01/05 12:28:51;;;;;;;17.77;7.03;;;4.20;99.90;;;;;;4916856;29;20214;-75
2021/01/05 12:31:17;;;;;;;12.80;5.97;;;4.30;99.90;;;;;;4916994;29;20217;-75
2021/01/05 12:33:44;;;;;;;14.37;7.07;;;4.10;99.90;;;;;;4916667;29;20217;-74
2021/01/05 12:36:10;;;;;;;17.20;6.30;;;4.10;99.90;;;;;;4916971;29;20252;-75
2021/01/05 12:38:37;;;;;;;18.73;6.23;;;4.20;99.90;;;;;;4917167;29;20213;-76
2021/01/05 12:41:04;;;;;;;17.73;6.60;;;4.30;99.90;;;;;;4916934;29;20304;-72
2021/01/05 12:43:31;;;;;;;15.80;6.67;;;4.30;99.90;;;;;;4916708;29;20221;-76
2021/01/05 12:45:57;;;;;;;14.57;7.03;;;4.10;99.90;;;;;;4916519;29;20708;-74
2021/01/05 12:48:23;;;;;;;13.73;6.37;;;4.20;99.90;;;;;;4916713;29;20265;-76
2021/01/05 12:50:49;;;;;;;13.90;6.10;;;4.20;99.90;;;;;;4916908;29;20217;-76
2021/01/05 12:53:16;;;;;;;13.27;5.90;;;4.30;99.90;;;;;;4917090;29;20261;-76
2021/01/05 12:55:44;;;;;;;15.73;6.00;;;4.50;99.90;;;;;;4916543;29;20241;-76
2021/01/05 12:58:10;;;;;;;14.77;6.27;;;4.60;99.90;;;;;;4916675;29;20233;-77
2021/01/05 13:00:37;;;;;;;10.10;5.10;;;4.70;99.90;;;;;;4901084;29;20206;-75
2021/01/05 13:03:04;;;;;;;12.43;5.83;;;4.80;99.90;;;;;;4897127;29;20206;-73
2021/01/05 13:05:33;;;;;;;11.00;5.13;;;5.10;99.90;;;;;;4899910;29;20226;-72
2021/01/05 13:07:59;;;;;;;14.33;5.87;;;5.10;99.90;;;;;;4900998;29;20207;-75
2021/01/05 13:10:27;;;;;;;13.83;6.07;;;4.80;99.90;;;;;;4903687;29;20210;-75
2021/01/05 13:12:53;;;;;;;11.40;4.97;;;4.70;99.90;;;;;;4901273;29;20270;-76
2021/01/05 13:15:19;;;;;;;15.90;6.23;;;4.60;99.90;;;;;;4900958;29;20250;-76
2021/01/05 13:17:46;;;;;;;17.23;5.90;;;4.50;99.90;;;;;;4901273;29;20214;-76
2021/01/05 13:20:14;;;;;;;17.57;6.37;;;4.20;99.90;;;;;;4901613;29;20210;-73
2021/01/05 13:22:41;;;;;;;12.80;5.70;;;4.20;99.90;;;;;;4900917;29;20223;-74
2021/01/05 13:25:11;;;;;;;12.20;5.17;;;4.30;99.90;;;;;;4900841;29;20230;-75
2021/01/05 13:27:37;;;;;;;16.33;6.03;;;4.50;99.90;;;;;;4900569;29;20242;-75
2021/01/05 13:30:06;;;;;;;13.27;5.83;;;4.70;99.90;;;;;;4900333;29;20211;-74
2021/01/05 13:32:33;;;;;;;12.47;6.10;;;4.50;99.90;;;;;;4899322;29;20210;-71
2021/01/05 13:35:00;;;;;;;13.90;6.10;;;4.30;99.90;;;;;;4899406;29;20246;-76
2021/01/05 13:37:26;;;;;;;15.03;6.37;;;4.30;99.90;;;;;;4912622;29;20210;-75
2021/01/05 13:39:52;;;;;;;14.73;6.40;;;4.20;99.90;;;;;;4918368;29;20241;-76
2021/01/05 13:42:21;;;;;;;15.13;5.43;;;4.10;99.90;;;;;;4918219;29;20221;-75
2021/01/05 13:44:48;;;;;;;15.00;6.10;;;4.10;99.90;;;;;;4918921;29;20234;-72
2021/01/05 13:47:17;;;;;;;14.47;6.07;;;4.20;99.90;;;;;;4919478;29;20213;-75
2021/01/05 13:49:44;;;;;;;15.73;6.30;;;4.20;99.90;;;;;;4918341;29;20641;-73
2021/01/05 13:52:14;;;;;;;13.03;5.50;;;4.20;99.90;;;;;;4919404;29;20220;-75
2021/01/05 13:54:41;;;;;;;15.10;6.20;;;4.20;99.90;;;;;;4919489;29;20248;-75
2021/01/05 13:57:08;;;;;;;15.30;5.83;;;4.20;99.90;;;;;;4919420;29;20206;-74
2021/01/05 13:59:34;;;;;;;14.50;6.00;;;4.00;99.90;;;;;;4919404;29;20213;-75
2021/01/05 14:02:03;;;;;;;16.30;6.17;;;3.90;99.90;;;;;;4919534;29;20673;-73
2021/01/05 14:04:29;;;;;;;13.73;6.03;;;3.90;99.90;;;;;;4919467;29;20633;-75
2021/01/05 14:06:57;;;;;;;12.80;6.03;;;4.00;99.90;;;;;;4919347;29;20672;-76
2021/01/05 14:09:25;;;;;;;17.13;6.73;;;3.90;99.90;;;;;;4919388;29;20214;-75
2021/01/05 14:11:52;;;;;;;14.73;6.23;;;4.00;99.90;;;;;;4919245;29;20739;-76
2021/01/05 14:14:19;;;;;;;22.43;6.53;;;4.10;99.90;;;;;;4919155;29;20229;-75
2021/01/05 14:16:48;;;;;;;12.77;6.17;;;4.20;99.90;;;;;;4919290;29;20230;-76
2021/01/05 14:19:14;;;;;;;15.67;6.50;;;4.30;99.90;;;;;;4919075;29;20213;-74
2021/01/05 14:21:40;;;;;;;14.17;6.53;;;4.20;99.90;;;;;;4918779;29;20217;-73
2021/01/05 14:24:14;;;;;;;13.10;5.50;;;4.10;99.90;;;;;;4918852;29;20214;-72
2021/01/05 14:26:42;;;;;;;14.63;6.70;;;4.10;99.90;;;;;;4919229;29;20221;-76
2021/01/05 14:29:08;;;;;;;12.83;5.93;;;3.90;99.90;;;;;;4919071;29;20339;-77
2021/01/05 14:31:34;;;;;;;15.43;5.73;;;3.80;99.90;;;;;;4919207;29;20209;-75
2021/01/05 14:34:00;;;;;;;17.80;6.27;;;3.80;99.90;;;;;;4918702;29;20244;-76
2021/01/05 14:36:29;;;;;;;17.17;6.83;;;3.70;99.90;;;;;;4918657;29;20241;-75
2021/01/05 14:38:55;;;;;;;12.77;6.20;;;3.70;99.90;;;;;;4918546;29;20209;-75
2021/01/05 14:41:26;;;;;;;16.67;5.53;;;3.80;99.90;;;;;;4918669;29;20213;-75
2021/01/05 14:43:54;;;;;;;13.70;6.47;;;4.00;99.90;;;;;;4918580;29;20217;-76
2021/01/05 14:46:22;;;;;;;14.60;6.20;;;3.80;99.90;;;;;;4918635;29;20668;-75
2021/01/05 14:48:48;;;;;;;14.83;6.20;;;4.00;99.90;;;;;;4918650;29;20210;-77
2021/01/05 14:51:22;;;;;;;12.13;5.57;;;4.10;99.90;;;;;;4918488;29;20576;-76
2021/01/05 14:53:49;;;;;;;14.73;7.60;;;4.10;99.90;;;;;;4918851;29;20220;-75
2021/01/05 14:56:16;;;;;;;14.47;5.70;;;4.10;99.90;;;;;;4918623;29;20252;-76
2021/01/05 14:58:42;;;;;;;12.43;5.83;;;4.10;99.90;;;;;;4918932;29;20232;-76
2021/01/05 15:01:09;;;;;;;13.93;6.27;;;4.10;99.90;;;;;;4918427;29;20210;-72
2021/01/05 15:03:35;;;;;;;13.00;5.87;;;4.10;99.90;;;;;;4918303;29;20212;-71
2021/01/05 15:06:02;;;;;;;15.50;6.13;;;4.10;99.90;;;;;;4918151;29;20263;-75
2021/01/05 15:08:28;;;;;;;13.63;6.67;;;3.90;99.90;;;;;;4918568;29;20209;-75
2021/01/05 15:10:55;;;;;;;13.37;5.67;;;3.90;99.90;;;;;;4918297;29;20728;-71
2021/01/05 15:13:21;;;;;;;13.80;5.83;;;3.90;99.90;;;;;;4918342;29;20209;-72
2021/01/05 15:15:48;;;;;;;12.50;6.20;;;4.10;99.90;;;;;;4917828;29;20257;-74
2021/01/05 15:18:15;;;;;;;17.87;7.03;;;4.30;99.90;;;;;;4918071;29;20206;-73
2021/01/05 15:20:41;;;;;;;12.43;5.50;;;4.40;99.90;;;;;;4917929;29;20740;-75
2021/01/05 15:23:07;;;;;;;14.23;6.20;;;4.50;99.90;;;;;;4918418;29;20206;-74
2021/01/05 15:25:34;;;;;;;11.90;5.03;;;4.60;99.90;;;;;;4918033;29;20242;-74
2021/01/05 15:28:00;;;;;;;13.77;5.53;;;4.70;99.90;;;;;;4917168;29;20205;-75
2021/01/05 15:30:26;;;;;;;12.50;5.77;;;4.50;99.90;;;;;;4917273;29;20240;-75
2021/01/05 15:32:52;;;;;;;15.03;5.43;;;4.40;99.90;;;;;;4914258;29;20561;-72
2021/01/05 15:35:20;;;;;;;12.20;5.20;;;4.30;99.90;;;;;;4916704;29;20725;-72
2021/01/05 15:37:46;;;;;;;12.03;5.53;;;4.20;99.90;;;;;;4917655;29;20210;-74
2021/01/05 15:40:13;;;;;;;11.80;5.43;;;4.20;99.90;;;;;;4917421;29;20221;-72
2021/01/05 15:42:39;;;;;;;12.00;4.87;;;4.30;99.90;;;;;;4918038;29;20214;-74
2021/01/05 15:45:07;;;;;;;10.57;4.70;;;4.40;99.90;;;;;;4916947;29;20246;-75
2021/01/05 15:47:33;;;;;;;10.90;4.37;;;4.60;99.90;;;;;;4917317;29;20218;-75
2021/01/05 15:49:59;;;;;;;11.77;5.13;;;4.50;99.90;;;;;;4918566;29;20210;-75
2021/01/05 15:52:26;;;;;;;11.53;5.10;;;4.40;99.90;;;;;;4917422;29;20213;-74
2021/01/05 15:54:53;;;;;;;10.53;4.83;;;4.30;99.90;;;;;;4917235;29;20257;-72
2021/01/05 15:57:19;;;;;;;14.90;6.10;;;4.40;99.90;;;;;;4917162;29;20273;-71
2021/01/05 15:59:45;;;;;;;15.57;5.50;;;4.50;99.90;;;;;;4917477;29;20656;-74
2021/01/05 16:02:12;;;;;;;12.37;5.50;;;4.60;99.90;;;;;;4917266;29;20217;-70
2021/01/05 16:04:38;;;;;;;11.73;5.23;;;4.60;99.90;;;;;;4914199;29;20241;-72
2021/01/05 16:07:10;;;;;;;16.63;5.80;;;4.30;99.90;;;;;;4915630;29;20281;-69
2021/01/05 16:09:37;;;;;;;12.17;5.23;;;4.30;99.90;;;;;;4914823;29;20209;-71
2021/01/05 16:12:04;;;;;;;10.53;4.63;;;4.20;99.90;;;;;;4914539;29;20209;-71
2021/01/05 16:14:30;;;;;;;14.83;5.63;;;4.20;99.90;;;;;;4914919;29;20265;-72
2021/01/05 16:16:56;;;;;;;10.43;5.10;;;4.30;99.90;;;;;;4916294;29;20577;-72
2021/01/05 16:19:23;;;;;;;9.70;5.03;;;4.30;99.90;;;;;;4898018;29;20215;-72
2021/01/05 16:21:51;;;;;;;11.50;4.77;;;4.30;99.90;;;;;;4897907;29;20270;-72
2021/01/05 16:24:17;;;;;;;13.37;5.30;;;4.10;99.90;;;;;;4897748;29;20226;-72
2021/01/05 16:26:44;;;;;;;11.77;5.13;;;4.40;99.90;;;;;;4897768;29;20691;-72
2021/01/05 16:29:12;;;;;;;10.93;4.93;;;4.40;99.90;;;;;;4897588;29;20219;-72
2021/01/05 16:31:41;;;;;;;15.77;5.93;;;4.30;99.90;;;;;;4897151;29;20670;-72
2021/01/05 16:34:08;;;;;;;13.33;5.53;;;4.50;99.90;;;;;;4897963;29;20214;-72
2021/01/05 16:36:34;;;;;;;13.50;5.73;;;4.60;99.90;;;;;;4897806;29;20235;-72
2021/01/05 16:39:01;;;;;;;10.90;5.03;;;4.40;99.90;;;;;;4897069;29;20210;-72
2021/01/05 16:41:28;;;;;;;12.80;5.90;;;4.60;99.90;;;;;;4897872;29;20202;-71
2021/01/05 16:43:56;;;;;;;10.30;4.87;;;4.70;99.90;;;;;;4897734;29;20218;-73
2021/01/05 16:46:22;;;;;;;11.20;5.27;;;4.80;99.90;;;;;;4898259;29;20254;-72
2021/01/05 16:48:48;;;;;;;11.43;5.40;;;4.60;99.90;;;;;;4898012;29;20211;-72
2021/01/05 16:51:14;;;;;;;12.93;5.67;;;4.60;99.90;;;;;;4897819;29;20211;-72
2021/01/05 16:53:40;;;;;;;11.30;4.83;;;4.40;99.90;;;;;;4898315;29;20218;-72
2021/01/05 16:56:07;;;;;;;11.97;4.90;;;4.10;99.90;;;;;;4897593;29;20301;-72
2021/01/05 16:58:33;;;;;;;13.13;5.83;;;4.20;99.90;;;;;;4897654;29;20222;-72
2021/01/05 17:01:00;;;;;;;14.03;5.33;;;4.30;99.90;;;;;;4897765;29;20214;-72
2021/01/05 17:03:26;;;;;;;12.90;5.57;;;4.30;99.90;;;;;;4897768;29;20210;-72
2021/01/05 17:05:53;;;;;;;8.83;4.97;;;4.50;99.90;;;;;;4897564;29;20231;-71
2021/01/05 17:08:20;;;;;;;15.33;6.17;;;4.60;99.90;;;;;;4897602;29;20219;-71
2021/01/05 17:10:51;;;;;;;11.53;5.17;;;4.60;99.90;;;;;;4897224;29;20582;-71
2021/01/05 17:13:17;;;;;;;12.60;5.23;;;4.70;99.90;;;;;;4898036;29;20214;-72
2021/01/05 17:15:43;;;;;;;13.03;6.40;;;4.40;99.90;;;;;;4897499;29;20238;-71
2021/01/05 17:18:11;;;;;;;14.70;6.80;;;4.30;99.90;;;;;;4897618;29;20662;-71
2021/01/05 17:20:37;;;;;;;12.57;5.70;;;4.40;99.90;;;;;;4897427;29;20215;-72
2021/01/05 17:23:05;;;;;;;13.63;6.37;;;4.50;99.90;;;;;;4897500;29;20286;-72
2021/01/05 17:25:34;;;;;;;13.23;6.73;;;4.50;99.90;;;;;;4897317;29;20714;-72
2021/01/05 17:28:00;;;;;;;17.10;7.43;;;4.50;99.90;;;;;;4897631;29;20299;-71
2021/01/05 17:30:30;;;;;;;12.67;5.47;;;4.50;99.90;;;;;;4897412;29;20206;-72
2021/01/05 17:32:57;;;;;;;12.93;6.40;;;4.40;99.90;;;;;;4897614;29;20216;-71
2021/01/05 17:35:26;;;;;;;15.87;6.73;;;4.40;99.90;;;;;;4897200;29;20238;-72
2021/01/05 17:37:53;;;;;;;12.60;5.97;;;4.30;99.90;;;;;;4897200;29;20275;-71
2021/01/05 17:40:21;;;;;;;14.00;5.93;;;4.40;99.90;;;;;;4897390;29;20207;-71
2021/01/05 17:42:49;;;;;;;14.90;6.30;;;4.50;99.90;;;;;;4897747;29;20206;-71
2021/01/05 17:45:17;;;;;;;16.10;6.20;;;4.60;99.90;;;;;;4897050;29;20286;-71
2021/01/05 17:47:43;;;;;;;14.77;6.60;;;4.60;99.90;;;;;;4897233;29;20202;-72
2021/01/05 17:50:10;;;;;;;12.17;5.60;;;4.70;99.90;;;;;;4897327;29;20673;-72
2021/01/05 17:52:37;;;;;;;14.43;6.27;;;4.70;99.90;;;;;;4900634;29;20210;-71
2021/01/05 17:55:04;;;;;;;12.17;5.77;;;4.60;99.90;;;;;;4906704;29;20241;-72
2021/01/05 17:57:30;;;;;;;13.17;6.57;;;4.50;99.90;;;;;;4918729;29;20226;-72
2021/01/05 17:59:56;;;;;;;15.20;6.90;;;4.50;99.90;;;;;;4918779;29;20688;-72
2021/01/05 18:02:24;;;;;;;14.83;6.60;;;4.30;99.90;;;;;;4919097;29;20222;-72
2021/01/05 18:04:51;;;;;;;14.70;6.20;;;4.20;99.90;;;;;;4918520;29;20234;-73
2021/01/05 18:07:19;;;;;;;13.20;6.33;;;4.30;99.90;;;;;;4919112;29;20236;-73
2021/01/05 18:09:48;;;;;;;13.90;6.33;;;4.30;99.90;;;;;;4918810;29;20213;-72
2021/01/05 18:12:14;;;;;;;13.77;6.30;;;4.30;99.90;;;;;;4919158;29;20209;-72
2021/01/05 18:14:40;;;;;;;16.87;6.57;;;4.40;99.90;;;;;;4918420;29;20700;-72
2021/01/05 18:17:07;;;;;;;14.83;6.97;;;4.30;99.90;;;;;;4918638;29;20300;-73
2021/01/05 18:19:33;;;;;;;13.57;6.87;;;4.40;99.90;;;;;;4918513;29;20221;-72
2021/01/05 18:21:59;;;;;;;11.27;5.93;;;4.20;99.90;;;;;;4918846;29;20214;-72
2021/01/05 18:24:25;;;;;;;14.97;6.93;;;4.10;99.90;;;;;;4917810;29;20233;-72
2021/01/05 18:26:53;;;;;;;14.53;6.40;;;4.10;99.90;;;;;;4918308;29;20225;-72
2021/01/05 18:29:21;;;;;;;14.27;6.90;;;4.30;99.90;;;;;;4918106;29;20268;-72
2021/01/05 18:31:52;;;;;;;17.70;7.43;;;4.40;99.90;;;;;;4915365;29;20213;-72
2021/01/05 18:34:18;;;;;;;14.40;6.87;;;4.30;99.90;;;;;;4917954;29;20240;-73
2021/01/05 18:36:44;;;;;;;17.50;7.03;;;4.30;99.90;;;;;;4918513;29;20241;-72
2021/01/05 18:39:10;;;;;;;15.90;7.50;;;4.30;99.90;;;;;;4918639;29;20554;-72
2021/01/05 18:41:37;;;;;;;15.23;7.40;;;4.50;99.90;;;;;;4918246;29;20218;-72
2021/01/05 18:44:05;;;;;;;15.00;7.13;;;4.40;99.90;;;;;;4918367;29;20562;-72
2021/01/05 18:46:34;;;;;;;16.83;7.10;;;4.30;99.90;;;;;;4917922;29;20688;-72
2021/01/05 18:49:01;;;;;;;12.97;6.70;;;4.10;99.90;;;;;;4918002;29;20546;-71
2021/01/05 18:51:28;;;;;;;16.93;6.53;;;4.00;99.90;;;;;;4918134;29;20221;-73
2021/01/05 18:53:54;;;;;;;14.87;7.13;;;4.00;99.90;;;;;;4917706;29;20677;-74
2021/01/05 18:56:22;;;;;;;14.07;6.37;;;4.00;99.90;;;;;;4918079;29;20284;-73
2021/01/05 18:58:48;;;;;;;16.20;6.87;;;3.90;99.90;;;;;;4917534;29;20218;-73
2021/01/05 19:01:17;;;;;;;16.93;7.47;;;3.80;99.90;;;;;;4917748;29;20224;-72
2021/01/05 19:03:43;;;;;;;18.77;7.23;;;3.60;99.90;;;;;;4917829;29;20209;-72
2021/01/05 19:06:10;;;;;;;20.37;7.60;;;3.60;99.90;;;;;;4918447;29;20241;-71
2021/01/05 19:08:36;;;;;;;15.73;7.00;;;3.60;99.90;;;;;;4915471;29;20573;-72
2021/01/05 19:11:02;;;;;;;15.00;6.93;;;3.70;99.90;;;;;;4918094;29;20221;-72
2021/01/05 19:13:28;;;;;;;15.17;7.13;;;3.60;99.90;;;;;;4917794;29;20220;-72
2021/01/05 19:15:55;;;;;;;19.70;7.60;;;3.60;99.90;;;;;;4917499;29;20253;-72
2021/01/05 19:18:22;;;;;;;14.53;6.83;;;3.70;99.90;;;;;;4917694;29;20206;-72
2021/01/05 19:20:48;;;;;;;14.17;7.23;;;3.90;99.90;;;;;;4917874;29;20210;-72
2021/01/05 19:23:14;;;;;;;17.10;7.93;;;4.10;99.90;;;;;;4917520;29;20554;-71
2021/01/05 19:25:40;;;;;;;17.80;6.93;;;4.30;99.90;;;;;;4917374;29;20237;-70
2021/01/05 19:28:07;;;;;;;19.20;6.70;;;4.40;99.90;;;;;;4917532;29;20265;-71
2021/01/05 19:30:35;;;;;;;14.57;6.80;;;4.50;99.90;;;;;;4917119;29;20210;-71
2021/01/05 19:33:02;;;;;;;16.00;6.57;;;4.60;99.90;;;;;;4917300;29;20217;-71
2021/01/05 19:35:33;;;;;;;17.40;7.43;;;4.40;99.90;;;;;;4917372;29;20245;-71
2021/01/05 19:37:59;;;;;;;16.93;6.87;;;4.50;99.90;;;;;;4916790;29;20210;-72
2021/01/05 19:40:26;;;;;;;15.93;7.10;;;4.50;99.90;;;;;;4917254;29;20217;-72
2021/01/05 19:42:53;;;;;;;16.30;7.17;;;4.50;99.90;;;;;;4917260;29;20220;-71
2021/01/05 19:45:22;;;;;;;15.00;6.50;;;4.50;99.90;;;;;;4917160;29;20237;-72
2021/01/05 19:47:48;;;;;;;17.70;7.37;;;4.40;99.90;;;;;;4916956;29;20699;-72
2021/01/05 19:50:16;;;;;;;15.10;6.83;;;4.30;99.90;;;;;;4916888;29;20573;-72
2021/01/05 19:52:43;;;;;;;13.17;6.57;;;4.30;99.90;;;;;;4916886;29;20304;-72
2021/01/05 19:55:14;;;;;;;16.83;6.80;;;4.10;99.90;;;;;;4916623;29;20273;-72
2021/01/05 19:57:41;;;;;;;17.73;6.83;;;4.00;99.90;;;;;;4916770;29;20708;-72
2021/01/05 20:00:08;;;;;;;13.27;5.97;;;4.10;99.90;;;;;;4917004;29;20257;-73
2021/01/05 20:02:34;;;;;;;15.90;6.93;;;4.00;99.90;;;;;;4916740;29;20692;-72
2021/01/05 20:05:00;;;;;;;12.47;5.80;;;3.90;99.90;;;;;;4916794;29;20237;-72
2021/01/05 20:07:27;;;;;;;16.17;6.77;;;3.90;99.90;;;;;;4916504;29;20532;-72
2021/01/05 20:09:54;;;;;;;15.10;6.87;;;3.90;99.90;;;;;;4912332;29;20213;-71
2021/01/05 20:12:20;;;;;;;13.03;6.17;;;4.00;99.90;;;;;;4916991;29;20217;-71
2021/01/05 20:14:46;;;;;;;12.60;6.67;;;3.80;99.90;;;;;;4916638;29;20241;-71
2021/01/05 20:17:13;;;;;;;13.37;6.53;;;3.90;99.90;;;;;;4917380;29;20224;-71
2021/01/05 20:19:40;;;;;;;13.13;6.47;;;3.80;99.90;;;;;;4916899;29;20558;-70
2021/01/05 20:22:06;;;;;;;14.77;6.90;;;3.60;99.90;;;;;;4916925;29;20216;-70
2021/01/05 20:24:33;;;;;;;13.00;5.87;;;3.60;99.90;;;;;;4916473;29;20237;-70
2021/01/05 20:27:00;;;;;;;11.57;6.00;;;3.60;99.90;;;;;;4916192;29;20210;-70
2021/01/05 20:29:26;;;;;;;11.00;5.90;;;3.70;99.90;;;;;;4915443;29;20572;-70
2021/01/05 20:31:53;;;;;;;10.97;6.03;;;3.90;99.90;;;;;;4916213;29;20688;-70
2021/01/05 20:34:19;;;;;;;13.10;5.60;;;3.80;99.90;;;;;;4916779;29;20229;-70
2021/01/05 20:36:46;;;;;;;14.03;6.90;;;3.60;99.90;;;;;;4916793;29;20241;-70
2021/01/05 20:39:14;;;;;;;10.27;5.50;;;3.60;99.90;;;;;;4916107;29;20212;-70
2021/01/05 20:41:42;;;;;;;16.80;6.57;;;3.70;99.90;;;;;;4916830;29;20213;-70
2021/01/05 20:44:09;;;;;;;11.57;6.17;;;3.60;99.90;;;;;;4916130;29;20296;-70
2021/01/05 20:46:35;;;;;;;12.13;5.47;;;3.60;99.90;;;;;;4916497;29;20304;-70
2021/01/05 20:49:02;;;;;;;11.33;5.47;;;3.50;99.90;;;;;;4916468;29;20224;-70
2021/01/05 20:51:29;;;;;;;11.57;5.50;;;3.50;99.90;;;;;;4916323;29;20205;-70
2021/01/05 20:53:56;;;;;;;12.57;6.13;;;3.60;99.90;;;;;;4916110;29;20272;-70
2021/01/05 20:56:23;;;;;;;10.30;5.30;;;3.60;99.90;;;;;;4916445;29;20305;-70
2021/01/05 20:58:50;;;;;;;14.63;6.83;;;3.40;99.90;;;;;;4916806;29;20244;-70
2021/01/05 21:01:17;;;;;;;15.87;6.93;;;3.60;99.90;;;;;;4916439;29;20209;-70
2021/01/05 21:03:43;;;;;;;16.77;6.67;;;3.50;99.90;;;;;;4915527;29;20225;-70
2021/01/05 21:06:10;;;;;;;12.47;6.43;;;3.40;99.90;;;;;;4916257;29;20237;-70
2021/01/05 21:08:38;;;;;;;15.20;6.80;;;3.50;99.90;;;;;;4916650;29;20245;-70
2021/01/05 21:11:05;;;;;;;15.77;6.93;;;3.60;99.90;;;;;;4916531;29;20214;-70
2021/01/05 21:13:31;;;;;;;16.40;6.27;;;3.60;99.90;;;;;;4916380;29;20214;-70
2021/01/05 21:15:57;;;;;;;14.00;6.60;;;3.80;99.90;;;;;;4916149;29;20241;-70
2021/01/05 21:18:24;;;;;;;11.93;6.20;;;3.80;99.90;;;;;;4916150;29;20616;-70
2021/01/05 21:20:51;;;;;;;16.70;6.70;;;3.70;99.90;;;;;;4915859;29;20308;-70
2021/01/05 21:23:19;;;;;;;14.97;6.53;;;3.60;99.90;;;;;;4916369;29;20296;-70
2021/01/05 21:25:47;;;;;;;14.17;6.27;;;3.60;99.90;;;;;;4917290;29;20320;-70
2021/01/05 21:28:14;;;;;;;14.30;6.47;;;3.40;99.90;;;;;;4900765;29;20214;-70
2021/01/05 21:30:41;;;;;;;16.53;6.97;;;3.60;99.90;;;;;;4899986;29;20300;-70
2021/01/05 21:33:08;;;;;;;16.93;6.73;;;3.60;99.90;;;;;;4900752;29;20810;-70
2021/01/05 21:35:37;;;;;;;16.97;7.23;;;3.60;99.90;;;;;;4900998;29;20305;-70
2021/01/05 21:38:06;;;;;;;16.30;7.37;;;3.40;99.90;;;;;;4901186;29;20301;-70
2021/01/05 21:40:33;;;;;;;17.23;7.33;;;3.50;99.90;;;;;;4900811;29;20300;-70
2021/01/05 21:43:00;;;;;;;16.87;6.97;;;3.50;99.90;;;;;;4901021;29;20309;-70